LTBI

Eskişehir Air Base Airport

Turkey
TAF LTBI 201640Z 2018/2103 32008KT 9999 BKN025
Issued Valid From Valid To
Apr-20 @ 16:40 UTC
(2 hours ago)
Apr-20 @ 18:00 UTC
(28 minutes ago)
Apr-21 @ 03:00 UTC
(in 9 hours)
Apr-20 @ 18:00 to Apr-21 @ 03:00
TAF LTBI 201640Z 2018/2103 32008KT 9999 BKN025
Wind Visibility Clouds
320° at 8 knots 10,000+ meters
  • Broken at 2,500' AGL
TAF LTBI 201640Z 2018/2103 32008KT 9999 BKN025
Issued Apr-20 @ 16:40 UTC
(2 hours ago)
Valid From Apr-20 @ 18:00 UTC
(28 minutes ago)
Valid To Apr-21 @ 03:00 UTC
(in 9 hours)
Apr-20 @ 18:00 - Apr-21 @ 03:00
Wind Visibility
320° at 8 knots 10,000+ meters
Clouds
  • Broken at 2,500' AGL